sensor_id;sensor_type;location;lat;lon;timestamp;pressure;altitude;pressure_sealevel;temperature;humidity
73284;BME280;61519;60.050;18.582;2023-12-20T00:00:55;99232.41;;;0.49;63.42
73284;BME280;61519;60.050;18.582;2023-12-20T00:03:20;99245.31;;;0.59;63.25
73284;BME280;61519;60.050;18.582;2023-12-20T00:05:47;99238.63;;;0.56;63.45
73284;BME280;61519;60.050;18.582;2023-12-20T00:08:13;99215.50;;;0.45;63.15
73284;BME280;61519;60.050;18.582;2023-12-20T00:10:38;99236.03;;;0.56;63.39
73284;BME280;61519;60.050;18.582;2023-12-20T00:13:03;99245.16;;;0.60;63.38
73284;BME280;61519;60.050;18.582;2023-12-20T00:15:29;99204.72;;;0.32;63.03
73284;BME280;61519;60.050;18.582;2023-12-20T00:17:54;99245.53;;;0.48;63.28
73284;BME280;61519;60.050;18.582;2023-12-20T00:20:19;99244.50;;;0.41;63.48
73284;BME280;61519;60.050;18.582;2023-12-20T00:22:45;99262.94;;;0.55;63.25
73284;BME280;61519;60.050;18.582;2023-12-20T00:25:10;99253.47;;;0.46;63.00
73284;BME280;61519;60.050;18.582;2023-12-20T00:27:36;99242.34;;;0.36;63.16
73284;BME280;61519;60.050;18.582;2023-12-20T00:30:01;99237.19;;;0.36;63.27
73284;BME280;61519;60.050;18.582;2023-12-20T00:32:26;99229.84;;;0.32;63.09
73284;BME280;61519;60.050;18.582;2023-12-20T00:34:51;99197.47;;;0.18;62.99
73284;BME280;61519;60.050;18.582;2023-12-20T00:37:17;99230.38;;;0.35;62.98
73284;BME280;61519;60.050;18.582;2023-12-20T00:39:42;99248.81;;;0.32;63.21
73284;BME280;61519;60.050;18.582;2023-12-20T00:42:07;99242.34;;;0.36;63.27
73284;BME280;61519;60.050;18.582;2023-12-20T00:44:33;99252.13;;;0.42;63.15
73284;BME280;61519;60.050;18.582;2023-12-20T00:46:58;99267.38;;;0.45;63.01
73284;BME280;61519;60.050;18.582;2023-12-20T00:49:23;99232.00;;;0.36;63.36
73284;BME280;61519;60.050;18.582;2023-12-20T00:51:49;99223.41;;;0.18;62.93
73284;BME280;61519;60.050;18.582;2023-12-20T00:54:15;99223.91;;;0.22;62.70
73284;BME280;61519;60.050;18.582;2023-12-20T00:56:41;99229.91;;;0.22;62.97
73284;BME280;61519;60.050;18.582;2023-12-20T00:59:06;99211.69;;;0.14;63.40
73284;BME280;61519;60.050;18.582;2023-12-20T01:01:31;99232.22;;;0.25;63.19
73284;BME280;61519;60.050;18.582;2023-12-20T01:03:58;99225.91;;;0.10;63.16
73284;BME280;61519;60.050;18.582;2023-12-20T01:06:23;99232.44;;;0.14;63.30
73284;BME280;61519;60.050;18.582;2023-12-20T01:08:48;99224.97;;;0.11;62.91
73284;BME280;61519;60.050;18.582;2023-12-20T01:11:14;99236.28;;;0.28;63.13
73284;BME280;61519;60.050;18.582;2023-12-20T01:13:39;99225.63;;;0.13;63.09
73284;BME280;61519;60.050;18.582;2023-12-20T01:16:04;99222.38;;;0.11;63.23
73284;BME280;61519;60.050;18.582;2023-12-20T01:18:32;99221.13;;;0.15;63.18
73284;BME280;61519;60.050;18.582;2023-12-20T01:21:02;99241.63;;;0.26;63.25
73284;BME280;61519;60.050;18.582;2023-12-20T01:23:28;99200.53;;;-0.04;63.08
73284;BME280;61519;60.050;18.582;2023-12-20T01:25:53;99203.13;;;-0.04;62.98
73284;BME280;61519;60.050;18.582;2023-12-20T01:28:19;99234.06;;;0.15;63.04
73284;BME280;61519;60.050;18.582;2023-12-20T01:30:44;99230.81;;;0.13;62.84
73284;BME280;61519;60.050;18.582;2023-12-20T01:33:09;99243.84;;;0.21;63.14
73284;BME280;61519;60.050;18.582;2023-12-20T01:35:35;99245.78;;;0.19;63.11
73284;BME280;61519;60.050;18.582;2023-12-20T01:38:00;99204.00;;;-0.13;63.15
73284;BME280;61519;60.050;18.582;2023-12-20T01:40:25;99176.31;;;-0.30;62.92
73284;BME280;61519;60.050;18.582;2023-12-20T01:42:58;99236.19;;;0.02;63.01
73284;BME280;61519;60.050;18.582;2023-12-20T01:45:24;99242.59;;;0.08;63.25
73284;BME280;61519;60.050;18.582;2023-12-20T01:47:50;99241.78;;;0.07;62.95
73284;BME280;61519;60.050;18.582;2023-12-20T01:50:15;99256.31;;;0.18;63.24
73284;BME280;61519;60.050;18.582;2023-12-20T01:52:42;99234.00;;;0.07;63.01
73284;BME280;61519;60.050;18.582;2023-12-20T01:55:08;99230.06;;;0.03;63.22
73284;BME280;61519;60.050;18.582;2023-12-20T01:57:39;99230.06;;;0.03;63.18
73284;BME280;61519;60.050;18.582;2023-12-20T02:00:08;99242.28;;;0.11;63.11
73284;BME280;61519;60.050;18.582;2023-12-20T02:02:37;99194.53;;;-0.22;63.14
73284;BME280;61519;60.050;18.582;2023-12-20T02:05:06;99239.03;;;0.09;62.94
73284;BME280;61519;60.050;18.582;2023-12-20T02:07:31;99234.28;;;0.04;63.27
73284;BME280;61519;60.050;18.582;2023-12-20T02:09:56;99211.19;;;-0.07;63.09
73284;BME280;61519;60.050;18.582;2023-12-20T02:12:22;99210.28;;;-0.16;63.16
73284;BME280;61519;60.050;18.582;2023-12-20T02:14:48;99211.09;;;-0.15;63.08
73284;BME280;61519;60.050;18.582;2023-12-20T02:17:13;99227.16;;;-0.12;63.36
73284;BME280;61519;60.050;18.582;2023-12-20T02:19:39;99226.72;;;-0.07;63.18
73284;BME280;61519;60.050;18.582;2023-12-20T02:22:09;99197.84;;;-0.30;63.37
73284;BME280;61519;60.050;18.582;2023-12-20T02:24:34;99198.38;;;-0.26;63.34
73284;BME280;61519;60.050;18.582;2023-12-20T02:27:00;99174.59;;;-0.39;63.17
73284;BME280;61519;60.050;18.582;2023-12-20T02:29:26;99219.25;;;-0.10;63.39
73284;BME280;61519;60.050;18.582;2023-12-20T02:31:51;99201.31;;;-0.21;63.34
73284;BME280;61519;60.050;18.582;2023-12-20T02:34:17;99182.06;;;-0.36;63.26
73284;BME280;61519;60.050;18.582;2023-12-20T02:36:42;99200.66;;;-0.23;63.03
73284;BME280;61519;60.050;18.582;2023-12-20T02:39:07;99185.69;;;-0.29;63.47
73284;BME280;61519;60.050;18.582;2023-12-20T02:41:33;99162.81;;;-0.51;63.16
73284;BME280;61519;60.050;18.582;2023-12-20T02:43:58;99195.69;;;-0.34;63.23
73284;BME280;61519;60.050;18.582;2023-12-20T02:46:24;99204.22;;;-0.24;63.53
73284;BME280;61519;60.050;18.582;2023-12-20T02:48:49;99217.19;;;-0.24;63.34
73284;BME280;61519;60.050;18.582;2023-12-20T02:51:14;99185.91;;;-0.40;63.51
73284;BME280;61519;60.050;18.582;2023-12-20T02:53:40;99150.75;;;-0.60;63.36
73284;BME280;61519;60.050;18.582;2023-12-20T02:56:05;99179.63;;;-0.55;63.24
73284;BME280;61519;60.050;18.582;2023-12-20T02:58:31;99177.38;;;-0.50;63.29
73284;BME280;61519;60.050;18.582;2023-12-20T03:00:56;99187.84;;;-0.42;63.05
73284;BME280;61519;60.050;18.582;2023-12-20T03:03:21;99182.16;;;-0.46;63.33
73284;BME280;61519;60.050;18.582;2023-12-20T03:05:47;99154.56;;;-0.64;63.32
73284;BME280;61519;60.050;18.582;2023-12-20T03:08:12;99197.88;;;-0.39;63.47
73284;BME280;61519;60.050;18.582;2023-12-20T03:10:37;99172.38;;;-0.52;63.46
73284;BME280;61519;60.050;18.582;2023-12-20T03:13:03;99171.53;;;-0.52;63.25
73284;BME280;61519;60.050;18.582;2023-12-20T03:15:28;99184.50;;;-0.52;63.38
73284;BME280;61519;60.050;18.582;2023-12-20T03:17:53;99184.91;;;-0.57;63.62
73284;BME280;61519;60.050;18.582;2023-12-20T03:20:19;99198.00;;;-0.58;63.35
73284;BME280;61519;60.050;18.582;2023-12-20T03:22:44;99211.06;;;-0.50;63.45
73284;BME280;61519;60.050;18.582;2023-12-20T03:25:09;99208.78;;;-0.53;63.22
73284;BME280;61519;60.050;18.582;2023-12-20T03:27:37;99214.03;;;-0.45;63.31
73284;BME280;61519;60.050;18.582;2023-12-20T03:30:04;99182.78;;;-0.61;63.24
73284;BME280;61519;60.050;18.582;2023-12-20T03:32:29;99196.41;;;-0.59;63.38
73284;BME280;61519;60.050;18.582;2023-12-20T03:34:55;99190.41;;;-0.60;63.38
73284;BME280;61519;60.050;18.582;2023-12-20T03:37:21;99200.69;;;-0.50;63.29
73284;BME280;61519;60.050;18.582;2023-12-20T03:39:47;99174.34;;;-0.63;63.33
73284;BME280;61519;60.050;18.582;2023-12-20T03:42:12;99191.31;;;-0.51;63.38
73284;BME280;61519;60.050;18.582;2023-12-20T03:44:39;99156.69;;;-0.77;63.31
73284;BME280;61519;60.050;18.582;2023-12-20T03:47:05;99201.94;;;-0.54;63.36
73284;BME280;61519;60.050;18.582;2023-12-20T03:49:30;99201.00;;;-0.53;63.16
73284;BME280;61519;60.050;18.582;2023-12-20T03:51:56;99159.13;;;-0.76;63.42
73284;BME280;61519;60.050;18.582;2023-12-20T03:54:21;99187.44;;;-0.65;63.46
73284;BME280;61519;60.050;18.582;2023-12-20T03:56:46;99150.09;;;-0.90;63.32
73284;BME280;61519;60.050;18.582;2023-12-20T03:59:11;99196.41;;;-0.59;63.51
73284;BME280;61519;60.050;18.582;2023-12-20T04:01:37;99173.56;;;-0.73;63.65
73284;BME280;61519;60.050;18.582;2023-12-20T04:04:02;99191.84;;;-0.75;63.38
73284;BME280;61519;60.050;18.582;2023-12-20T04:06:28;99216.13;;;-0.58;63.73
73284;BME280;61519;60.050;18.582;2023-12-20T04:08:53;99184.50;;;-0.79;63.54
73284;BME280;61519;60.050;18.582;2023-12-20T04:11:18;99189.09;;;-0.73;63.57
73284;BME280;61519;60.050;18.582;2023-12-20T04:13:44;99181.75;;;-0.78;63.47
73284;BME280;61519;60.050;18.582;2023-12-20T04:16:09;99194.97;;;-0.71;63.35
73284;BME280;61519;60.050;18.582;2023-12-20T04:18:34;99182.84;;;-0.80;63.72
73284;BME280;61519;60.050;18.582;2023-12-20T04:21:00;99182.13;;;-0.91;63.51
73284;BME280;61519;60.050;18.582;2023-12-20T04:23:25;99194.44;;;-0.84;63.67
73284;BME280;61519;60.050;18.582;2023-12-20T04:25:50;99209.00;;;-0.74;63.34
73284;BME280;61519;60.050;18.582;2023-12-20T04:28:16;99203.88;;;-0.83;63.82
73284;BME280;61519;60.050;18.582;2023-12-20T04:30:42;99204.69;;;-0.83;63.57
73284;BME280;61519;60.050;18.582;2023-12-20T04:33:07;99195.72;;;-0.88;63.39
73284;BME280;61519;60.050;18.582;2023-12-20T04:35:32;99193.81;;;-0.86;63.43
73284;BME280;61519;60.050;18.582;2023-12-20T04:37:58;99179.41;;;-0.99;63.86
73284;BME280;61519;60.050;18.582;2023-12-20T04:40:23;99186.16;;;-0.88;63.65
73284;BME280;61519;60.050;18.582;2023-12-20T04:42:48;99159.50;;;-0.98;63.96
73284;BME280;61519;60.050;18.582;2023-12-20T04:45:14;99169.59;;;-0.95;63.74
73284;BME280;61519;60.050;18.582;2023-12-20T04:47:41;99191.88;;;-0.84;64.02
73284;BME280;61519;60.050;18.582;2023-12-20T04:50:07;99172.22;;;-1.05;64.06
73284;BME280;61519;60.050;18.582;2023-12-20T04:52:33;99197.34;;;-0.88;64.04
73284;BME280;61519;60.050;18.582;2023-12-20T04:54:58;99184.28;;;-0.96;64.15
73284;BME280;61519;60.050;18.582;2023-12-20T04:57:24;99178.34;;;-1.06;64.12
73284;BME280;61519;60.050;18.582;2023-12-20T04:59:50;99192.63;;;-1.02;64.02
73284;BME280;61519;60.050;18.582;2023-12-20T05:02:15;99213.16;;;-0.91;64.04
73284;BME280;61519;60.050;18.582;2023-12-20T05:04:41;99186.78;;;-1.04;63.98
73284;BME280;61519;60.050;18.582;2023-12-20T05:07:06;99163.00;;;-1.17;64.26
73284;BME280;61519;60.050;18.582;2023-12-20T05:09:32;99192.72;;;-0.94;64.38
73284;BME280;61519;60.050;18.582;2023-12-20T05:11:57;99154.72;;;-1.20;64.18
73284;BME280;61519;60.050;18.582;2023-12-20T05:14:22;99183.53;;;-1.06;64.30
73284;BME280;61519;60.050;18.582;2023-12-20T05:16:48;99175.59;;;-1.04;64.53
73284;BME280;61519;60.050;18.582;2023-12-20T05:19:13;99155.53;;;-1.20;64.55
73284;BME280;61519;60.050;18.582;2023-12-20T05:21:39;99157.84;;;-1.17;64.17
73284;BME280;61519;60.050;18.582;2023-12-20T05:24:04;99170.88;;;-1.09;64.72
73284;BME280;61519;60.050;18.582;2023-12-20T05:26:30;99172.13;;;-1.13;64.62
73284;BME280;61519;60.050;18.582;2023-12-20T05:28:55;99159.06;;;-1.21;64.34
73284;BME280;61519;60.050;18.582;2023-12-20T05:31:20;99172.13;;;-1.13;64.64
73284;BME280;61519;60.050;18.582;2023-12-20T05:33:46;99162.59;;;-1.22;64.56
73284;BME280;61519;60.050;18.582;2023-12-20T05:36:11;99199.03;;;-1.06;64.74
73284;BME280;61519;60.050;18.582;2023-12-20T05:38:38;99165.34;;;-1.23;64.69
73284;BME280;61519;60.050;18.582;2023-12-20T05:41:04;99184.09;;;-1.12;64.81
73284;BME280;61519;60.050;18.582;2023-12-20T05:43:29;99177.28;;;-1.13;64.67
73284;BME280;61519;60.050;18.582;2023-12-20T05:45:54;99184.75;;;-1.10;64.62
73284;BME280;61519;60.050;18.582;2023-12-20T05:48:20;99154.34;;;-1.35;64.95
73284;BME280;61519;60.050;18.582;2023-12-20T05:50:45;99181.38;;;-1.20;64.78
73284;BME280;61519;60.050;18.582;2023-12-20T05:53:10;99180.84;;;-1.23;64.78
73284;BME280;61519;60.050;18.582;2023-12-20T05:55:36;99178.69;;;-1.28;64.91
73284;BME280;61519;60.050;18.582;2023-12-20T05:58:01;99159.94;;;-1.39;64.85
73284;BME280;61519;60.050;18.582;2023-12-20T06:00:26;99181.56;;;-1.31;65.21
73284;BME280;61519;60.050;18.582;2023-12-20T06:02:52;99167.84;;;-1.41;64.90
73284;BME280;61519;60.050;18.582;2023-12-20T06:05:17;99202.63;;;-1.26;64.66
73284;BME280;61519;60.050;18.582;2023-12-20T06:07:42;99168.28;;;-1.55;64.82
73284;BME280;61519;60.050;18.582;2023-12-20T06:10:08;99211.22;;;-1.25;64.81
73284;BME280;61519;60.050;18.582;2023-12-20T06:12:34;99175.22;;;-1.46;65.10
73284;BME280;61519;60.050;18.582;2023-12-20T06:15:01;99195.72;;;-1.35;65.04
73284;BME280;61519;60.050;18.582;2023-12-20T06:17:26;99184.72;;;-1.46;64.93
73284;BME280;61519;60.050;18.582;2023-12-20T06:19:52;99204.47;;;-1.36;65.15
73284;BME280;61519;60.050;18.582;2023-12-20T06:22:17;99191.28;;;-1.52;64.67
73284;BME280;61519;60.050;18.582;2023-12-20T06:24:42;99212.63;;;-1.40;64.75
73284;BME280;61519;60.050;18.582;2023-12-20T06:27:08;99186.38;;;-1.55;65.13
73284;BME280;61519;60.050;18.582;2023-12-20T06:29:33;99143.16;;;-1.72;65.02
73284;BME280;61519;60.050;18.582;2023-12-20T06:32:00;99163.28;;;-1.66;64.93
73284;BME280;61519;60.050;18.582;2023-12-20T06:34:26;99173.06;;;-1.60;65.01
73284;BME280;61519;60.050;18.582;2023-12-20T06:36:51;99158.66;;;-1.72;65.21
73284;BME280;61519;60.050;18.582;2023-12-20T06:39:16;99193.19;;;-1.54;64.92
73284;BME280;61519;60.050;18.582;2023-12-20T06:41:42;99195.94;;;-1.55;65.23
73284;BME280;61519;60.050;18.582;2023-12-20T06:44:08;99165.06;;;-1.76;64.85
73284;BME280;61519;60.050;18.582;2023-12-20T06:46:33;99169.81;;;-1.71;65.46
73284;BME280;61519;60.050;18.582;2023-12-20T06:48:58;99166.28;;;-1.80;65.33
73284;BME280;61519;60.050;18.582;2023-12-20T06:51:24;99163.84;;;-1.82;65.04
73284;BME280;61519;60.050;18.582;2023-12-20T06:53:51;99155.16;;;-1.90;65.09
73284;BME280;61519;60.050;18.582;2023-12-20T06:56:17;99189.97;;;-1.75;65.44
73284;BME280;61519;60.050;18.582;2023-12-20T06:58:42;99180.72;;;-1.77;65.33
73284;BME280;61519;60.050;18.582;2023-12-20T07:01:12;99167.25;;;-1.91;65.07
73284;BME280;61519;60.050;18.582;2023-12-20T07:03:38;99168.34;;;-1.93;65.20
73284;BME280;61519;60.050;18.582;2023-12-20T07:06:03;99185.34;;;-1.81;65.20
73284;BME280;61519;60.050;18.582;2023-12-20T07:08:29;99165.63;;;-1.92;65.02
73284;BME280;61519;60.050;18.582;2023-12-20T07:10:54;99175.56;;;-1.87;65.28
73284;BME280;61519;60.050;18.582;2023-12-20T07:13:19;99160.84;;;-1.96;65.16
73284;BME280;61519;60.050;18.582;2023-12-20T07:15:45;99183.03;;;-1.84;65.37
73284;BME280;61519;60.050;18.582;2023-12-20T07:18:10;99185.75;;;-1.86;65.34
73284;BME280;61519;60.050;18.582;2023-12-20T07:20:36;99179.91;;;-1.88;65.19
73284;BME280;61519;60.050;18.582;2023-12-20T07:23:01;99176.09;;;-1.93;65.53
73284;BME280;61519;60.050;18.582;2023-12-20T07:25:26;99162.75;;;-1.98;65.14
73284;BME280;61519;60.050;18.582;2023-12-20T07:27:52;99168.34;;;-1.93;65.05
73284;BME280;61519;60.050;18.582;2023-12-20T07:30:17;99202.31;;;-1.69;65.58
73284;BME280;61519;60.050;18.582;2023-12-20T07:32:43;99180.19;;;-1.81;65.20
73284;BME280;61519;60.050;18.582;2023-12-20T07:35:08;99169.84;;;-1.81;65.36
73284;BME280;61519;60.050;18.582;2023-12-20T07:37:33;99188.44;;;-1.68;65.18
73284;BME280;61519;60.050;18.582;2023-12-20T07:39:59;99182.59;;;-1.60;65.12
73284;BME280;61519;60.050;18.582;2023-12-20T07:42:24;99180.25;;;-1.54;65.28
73284;BME280;61519;60.050;18.582;2023-12-20T07:44:49;99154.56;;;-1.65;65.09
73284;BME280;61519;60.050;18.582;2023-12-20T07:47:15;99141.25;;;-1.70;65.12
73284;BME280;61519;60.050;18.582;2023-12-20T07:49:46;99135.13;;;-1.69;65.21
73284;BME280;61519;60.050;18.582;2023-12-20T07:52:12;99137.69;;;-1.69;65.24
73284;BME280;61519;60.050;18.582;2023-12-20T07:54:37;99149.50;;;-1.57;65.17
73284;BME280;61519;60.050;18.582;2023-12-20T07:57:03;99139.88;;;-1.64;65.18
73284;BME280;61519;60.050;18.582;2023-12-20T07:59:28;99144.47;;;-1.58;65.04
73284;BME280;61519;60.050;18.582;2023-12-20T08:01:53;99162.41;;;-1.47;65.11
73284;BME280;61519;60.050;18.582;2023-12-20T08:04:19;99140.94;;;-1.48;65.02
73284;BME280;61519;60.050;18.582;2023-12-20T08:06:44;99134.13;;;-1.49;65.28
73284;BME280;61519;60.050;18.582;2023-12-20T08:09:10;99158.66;;;-1.26;65.02
73284;BME280;61519;60.050;18.582;2023-12-20T08:11:35;99164.25;;;-1.21;64.98
73284;BME280;61519;60.050;18.582;2023-12-20T08:14:00;99126.97;;;-1.28;65.16
73284;BME280;61519;60.050;18.582;2023-12-20T08:16:26;99135.13;;;-1.23;64.64
73284;BME280;61519;60.050;18.582;2023-12-20T08:18:51;99145.69;;;-1.07;64.82
73284;BME280;61519;60.050;18.582;2023-12-20T08:21:17;99145.69;;;-1.07;64.85
73284;BME280;61519;60.050;18.582;2023-12-20T08:23:45;99164.53;;;-0.87;64.85
73284;BME280;61519;60.050;18.582;2023-12-20T08:26:11;99150.47;;;-0.84;65.15
73284;BME280;61519;60.050;18.582;2023-12-20T08:28:36;99120.28;;;-0.94;64.75
73284;BME280;61519;60.050;18.582;2023-12-20T08:31:02;99127.84;;;-0.82;64.63
73284;BME280;61519;60.050;18.582;2023-12-20T08:33:27;99109.06;;;-0.84;64.76
73284;BME280;61519;60.050;18.582;2023-12-20T08:35:52;99121.81;;;-0.73;64.40
73284;BME280;61519;60.050;18.582;2023-12-20T08:38:18;99138.47;;;-0.58;64.99
73284;BME280;61519;60.050;18.582;2023-12-20T08:40:44;99146.41;;;-0.42;64.81
73284;BME280;61519;60.050;18.582;2023-12-20T08:43:09;99125.59;;;-0.50;64.94
73284;BME280;61519;60.050;18.582;2023-12-20T08:45:34;99123.75;;;-0.40;64.67
73284;BME280;61519;60.050;18.582;2023-12-20T08:48:00;99115.41;;;-0.34;64.91
73284;BME280;61519;60.050;18.582;2023-12-20T08:50:25;99094.84;;;-0.36;64.60
73284;BME280;61519;60.050;18.582;2023-12-20T08:52:51;99097.50;;;-0.28;64.51
73284;BME280;61519;60.050;18.582;2023-12-20T08:55:16;99092.22;;;-0.18;64.47
73284;BME280;61519;60.050;18.582;2023-12-20T08:57:43;99084.16;;;-0.15;64.42
73284;BME280;61519;60.050;18.582;2023-12-20T09:00:09;99123.78;;;0.21;64.53
73284;BME280;61519;60.050;18.582;2023-12-20T09:02:34;99110.47;;;0.16;64.25
73284;BME280;61519;60.050;18.582;2023-12-20T09:05:01;99079.91;;;0.02;64.45
73284;BME280;61519;60.050;18.582;2023-12-20T09:07:27;99120.16;;;0.31;64.32
73284;BME280;61519;60.050;18.582;2023-12-20T09:09:55;99087.34;;;0.22;64.50
73284;BME280;61519;60.050;18.582;2023-12-20T09:12:21;99107.53;;;0.36;64.29
73284;BME280;61519;60.050;18.582;2023-12-20T09:14:47;99104.78;;;0.38;63.93
73284;BME280;61519;60.050;18.582;2023-12-20T09:17:13;99125.00;;;0.60;64.30
73284;BME280;61519;60.050;18.582;2023-12-20T09:19:38;99115.25;;;0.54;64.23
73284;BME280;61519;60.050;18.582;2023-12-20T09:22:04;99126.50;;;0.62;63.95
73284;BME280;61519;60.050;18.582;2023-12-20T09:24:30;99107.19;;;0.65;63.96
73284;BME280;61519;60.050;18.582;2023-12-20T09:26:56;99114.56;;;0.77;63.94
73284;BME280;61519;60.050;18.582;2023-12-20T09:29:21;99130.88;;;0.96;64.05
73284;BME280;61519;60.050;18.582;2023-12-20T09:31:46;99133.19;;;1.07;63.80
73284;BME280;61519;60.050;18.582;2023-12-20T09:34:14;99109.84;;;1.15;63.85
73284;BME280;61519;60.050;18.582;2023-12-20T09:36:39;99098.00;;;1.20;63.76
73284;BME280;61519;60.050;18.582;2023-12-20T09:39:11;99110.25;;;1.44;63.42
73284;BME280;61519;60.050;18.582;2023-12-20T09:41:44;99097.28;;;1.52;63.66
73284;BME280;61519;60.050;18.582;2023-12-20T09:44:14;99110.59;;;1.73;63.47
73284;BME280;61519;60.050;18.582;2023-12-20T09:46:43;99091.13;;;1.77;63.03
73284;BME280;61519;60.050;18.582;2023-12-20T09:49:08;99077.16;;;1.78;63.44
73284;BME280;61519;60.050;18.582;2023-12-20T09:51:36;99102.81;;;1.97;63.26
73284;BME280;61519;60.050;18.582;2023-12-20T09:54:05;99067.09;;;1.83;63.36
73284;BME280;61519;60.050;18.582;2023-12-20T09:56:30;99057.66;;;1.82;63.21
73284;BME280;61519;60.050;18.582;2023-12-20T09:58:56;99061.88;;;1.91;63.40
73284;BME280;61519;60.050;18.582;2023-12-20T10:01:23;99073.75;;;2.02;63.13
73284;BME280;61519;60.050;18.582;2023-12-20T10:03:50;99030.88;;;1.82;63.24
73284;BME280;61519;60.050;18.582;2023-12-20T10:06:17;99042.38;;;1.95;63.50
73284;BME280;61519;60.050;18.582;2023-12-20T10:08:43;99043.03;;;1.89;63.20
73284;BME280;61519;60.050;18.582;2023-12-20T10:11:09;99066.44;;;1.97;63.22
73284;BME280;61519;60.050;18.582;2023-12-20T10:13:39;99073.28;;;1.90;63.39
73284;BME280;61519;60.050;18.582;2023-12-20T10:16:05;99057.03;;;1.72;63.28
73284;BME280;61519;60.050;18.582;2023-12-20T10:18:32;99049.22;;;1.56;63.32
73284;BME280;61519;60.050;18.582;2023-12-20T10:20:57;99043.22;;;1.47;63.26
73284;BME280;61519;60.050;18.582;2023-12-20T10:23:23;99054.09;;;1.51;63.57
73284;BME280;61519;60.050;18.582;2023-12-20T10:26:01;99011.53;;;1.20;63.42
73284;BME280;61519;60.050;18.582;2023-12-20T10:28:26;99027.91;;;1.28;63.56
73284;BME280;61519;60.050;18.582;2023-12-20T10:30:55;99006.81;;;1.15;63.54
73284;BME280;61519;60.050;18.582;2023-12-20T10:33:27;99033.09;;;1.28;63.84
73284;BME280;61519;60.050;18.582;2023-12-20T10:35:54;99039.47;;;1.26;63.63
73284;BME280;61519;60.050;18.582;2023-12-20T10:38:19;98989.72;;;0.97;63.81
73284;BME280;61519;60.050;18.582;2023-12-20T10:40:45;99006.31;;;1.12;63.76
73284;BME280;61519;60.050;18.582;2023-12-20T10:43:11;99024.84;;;1.25;63.70
73284;BME280;61519;60.050;18.582;2023-12-20T10:45:37;98988.78;;;1.06;63.78
73284;BME280;61519;60.050;18.582;2023-12-20T10:48:03;98990.75;;;1.12;63.72
73284;BME280;61519;60.050;18.582;2023-12-20T10:50:29;99011.53;;;1.20;63.87
73284;BME280;61519;60.050;18.582;2023-12-20T10:52:56;98992.03;;;1.08;63.83
73284;BME280;61519;60.050;18.582;2023-12-20T10:55:22;98993.00;;;1.07;63.79
73284;BME280;61519;60.050;18.582;2023-12-20T10:57:50;98997.56;;;1.21;63.95
73284;BME280;61519;60.050;18.582;2023-12-20T11:00:17;98989.78;;;1.21;63.79
73284;BME280;61519;60.050;18.582;2023-12-20T11:02:43;98970.28;;;1.09;63.79
73284;BME280;61519;60.050;18.582;2023-12-20T11:11:04;98961.69;;;1.16;63.94
73284;BME280;61519;60.050;18.582;2023-12-20T11:13:37;98950.16;;;1.03;63.94
73284;BME280;61519;60.050;18.582;2023-12-20T11:16:06;98964.28;;;1.08;63.85
73284;BME280;61519;60.050;18.582;2023-12-20T11:18:32;98971.09;;;1.09;63.97
73284;BME280;61519;60.050;18.582;2023-12-20T11:21:04;98976.75;;;1.05;64.00
73284;BME280;61519;60.050;18.582;2023-12-20T11:23:30;98969.97;;;1.04;63.74
73284;BME280;61519;60.050;18.582;2023-12-20T11:25:58;98951.13;;;0.94;63.81
73284;BME280;61519;60.050;18.582;2023-12-20T11:28:25;98954.03;;;0.99;63.96
73284;BME280;61519;60.050;18.582;2023-12-20T11:33:21;98930.66;;;0.90;64.12
73284;BME280;61519;60.050;18.582;2023-12-20T11:35:46;98948.69;;;1.08;63.73
73284;BME280;61519;60.050;18.582;2023-12-20T11:38:13;98948.06;;;1.06;63.93
73284;BME280;61519;60.050;18.582;2023-12-20T11:40:41;98930.03;;;0.97;64.13
73284;BME280;61519;60.050;18.582;2023-12-20T11:43:06;98927.59;;;0.95;64.05
73284;BME280;61519;60.050;18.582;2023-12-20T11:45:32;98926.78;;;0.95;63.82
73284;BME280;61519;60.050;18.582;2023-12-20T11:47:58;98938.81;;;1.04;63.89
73284;BME280;61519;60.050;18.582;2023-12-20T11:50:24;98911.22;;;0.78;63.86
73284;BME280;61519;60.050;18.582;2023-12-20T11:52:50;98950.16;;;1.03;63.96
73284;BME280;61519;60.050;18.582;2023-12-20T11:55:16;98948.84;;;0.99;64.26
73284;BME280;61519;60.050;18.582;2023-12-20T11:57:43;98940.94;;;1.00;64.27
73284;BME280;61519;60.050;18.582;2023-12-20T12:00:09;98934.91;;;1.00;64.10
73284;BME280;61519;60.050;18.582;2023-12-20T12:02:35;98904.56;;;0.84;64.19
73284;BME280;61519;60.050;18.582;2023-12-20T12:05:00;98921.09;;;0.91;64.37
73284;BME280;61519;60.050;18.582;2023-12-20T12:07:26;98923.72;;;0.91;64.30
73284;BME280;61519;60.050;18.582;2023-12-20T12:09:51;98927.13;;;1.00;64.20
73284;BME280;61519;60.050;18.582;2023-12-20T12:12:17;98888.81;;;0.77;64.30
73284;BME280;61519;60.050;18.582;2023-12-20T12:14:44;98914.47;;;0.97;64.28
73284;BME280;61519;60.050;18.582;2023-12-20T12:17:13;98904.72;;;0.90;64.49
73284;BME280;61519;60.050;18.582;2023-12-20T12:19:43;98921.59;;;0.95;64.48
73284;BME280;61519;60.050;18.582;2023-12-20T12:24:39;98876.31;;;0.73;64.40
73284;BME280;61519;60.050;18.582;2023-12-20T12:27:08;98873.59;;;0.74;64.37
73284;BME280;61519;60.050;18.582;2023-12-20T12:29:34;98881.69;;;0.79;64.46
73284;BME280;61519;60.050;18.582;2023-12-20T12:32:00;98905.38;;;0.93;64.54
73284;BME280;61519;60.050;18.582;2023-12-20T12:34:29;98895.00;;;0.93;64.51
73284;BME280;61519;60.050;18.582;2023-12-20T12:36:54;98871.97;;;0.81;64.68
73284;BME280;61519;60.050;18.582;2023-12-20T12:39:20;98883.97;;;0.82;64.60
73284;BME280;61519;60.050;18.582;2023-12-20T12:41:45;98893.38;;;0.92;64.57
73284;BME280;61519;60.050;18.582;2023-12-20T12:44:11;98861.56;;;0.73;64.70
73284;BME280;61519;60.050;18.582;2023-12-20T12:46:36;98871.31;;;0.79;64.53
73284;BME280;61519;60.050;18.582;2023-12-20T12:49:02;98886.41;;;0.92;64.56
73284;BME280;61519;60.050;18.582;2023-12-20T12:51:27;98887.22;;;0.93;64.75
73284;BME280;61519;60.050;18.582;2023-12-20T12:53:53;98885.25;;;0.95;64.56
73284;BME280;61519;60.050;18.582;2023-12-20T12:56:18;98862.22;;;0.83;64.68
73284;BME280;61519;60.050;18.582;2023-12-20T12:58:44;98876.03;;;0.92;64.72